createdAt,value
2023-05-15T00:02:07.055Z,408.32
2023-05-15T00:09:59.797Z,409.01
2023-05-15T00:15:13.511Z,409.16
2023-05-15T00:21:08.001Z,409.66
2023-05-15T00:26:54.738Z,409.18
2023-05-15T00:37:08.700Z,408.89
2023-05-15T00:42:56.171Z,409.47
2023-05-15T00:48:39.649Z,409.81
2023-05-15T00:54:15.929Z,409.85
2023-05-15T00:59:57.113Z,410.20
2023-05-15T01:11:04.577Z,409.73
2023-05-15T01:16:52.221Z,409.79
2023-05-15T01:33:02.800Z,409.98
2023-05-15T01:33:04.893Z,409.73
2023-05-15T01:51:48.170Z,409.24
2023-05-15T01:59:46.920Z,408.51
2023-05-15T02:03:31.113Z,409.07
2023-05-15T02:09:29.416Z,409.16
2023-05-15T02:15:20.605Z,409.76
2023-05-15T02:22:10.285Z,410.14
2023-05-15T02:26:24.466Z,410.54
2023-05-15T02:33:30.635Z,410.66
2023-05-15T02:38:57.107Z,411.09
2023-05-15T02:43:35.190Z,411.05
2023-05-15T02:50:28.763Z,410.93
2023-05-15T02:56:11.262Z,411.50
2023-05-15T03:01:55.952Z,411.69
2023-05-15T03:07:10.353Z,411.65
2023-05-15T03:12:57.597Z,412.06
2023-05-15T03:18:10.499Z,411.62
2023-05-15T03:23:57.659Z,410.97
2023-05-15T03:35:35.026Z,410.83
2023-05-15T03:40:50.953Z,411.03
2023-05-15T03:45:56.066Z,410.85
2023-05-15T03:51:10.126Z,410.22
2023-05-15T03:56:57.609Z,410.43
2023-05-15T04:02:21.357Z,410.08
2023-05-15T04:07:32.336Z,410.04
2023-05-15T04:13:14.928Z,410.55
2023-05-15T04:18:31.404Z,410.83
2023-05-15T04:23:56.770Z,411.61
2023-05-15T04:29:03.891Z,411.51
2023-05-15T04:34:17.678Z,411.42
2023-05-15T04:39:35.660Z,410.86
2023-05-15T04:44:45.509Z,410.54
2023-05-15T04:49:57.932Z,410.24
2023-05-15T04:55:45.342Z,409.24
2023-05-15T05:01:03.537Z,408.82
2023-05-15T05:06:43.891Z,408.42
2023-05-15T05:11:54.617Z,408.47
2023-05-15T05:17:05.180Z,407.91
2023-05-15T05:22:13.752Z,408.04
2023-05-15T05:27:32.593Z,407.51
2023-05-15T05:32:44.306Z,406.91
2023-05-15T05:37:51.906Z,407.18
2023-05-15T05:43:46.805Z,407.30
2023-05-15T05:48:11.317Z,407.23
2023-05-15T05:53:33.864Z,407.09
2023-05-15T05:58:41.928Z,407.75
2023-05-15T06:04:25.034Z,407.48
2023-05-15T06:09:36.554Z,406.99
2023-05-15T06:14:44.266Z,407.20
2023-05-15T06:20:11.165Z,407.17
2023-05-15T06:25:41.104Z,407.61
2023-05-15T06:31:42.379Z,407.28
2023-05-15T06:36:09.764Z,406.50
2023-05-15T06:41:28.889Z,406.49
2023-05-15T06:47:00.349Z,405.80
2023-05-15T06:52:01.638Z,405.40
2023-05-15T06:57:25.125Z,405.67
2023-05-15T07:03:14.067Z,407.23
2023-05-15T07:08:39.291Z,406.08
2023-05-15T07:14:09.355Z,405.75
2023-05-15T07:19:04.928Z,405.43
2023-05-15T07:24:40.308Z,405.09
2023-05-15T07:30:11.861Z,405.19
2023-05-15T07:35:22.946Z,404.84
2023-05-15T07:40:37.328Z,404.45
2023-05-15T07:45:49.112Z,403.98
2023-05-15T07:50:56.697Z,404.19
2023-05-15T07:56:40.683Z,404.90
2023-05-15T08:01:55.540Z,404.52
2023-05-15T08:07:12.350Z,403.90
2023-05-15T08:12:25.550Z,403.82
2023-05-15T08:18:07.796Z,404.16
2023-05-15T08:23:20.337Z,404.19
2023-05-15T08:28:35.570Z,404.49
2023-05-15T08:33:48.387Z,404.73
2023-05-15T08:39:49.493Z,405.14
2023-05-15T08:44:27.996Z,405.24
2023-05-15T08:49:39.062Z,405.84
2023-05-15T08:54:48.265Z,405.51
2023-05-15T09:00:00.525Z,405.73
2023-05-15T09:05:11.136Z,405.88
2023-05-15T09:10:27.639Z,405.32
2023-05-15T09:16:12.055Z,404.94
2023-05-15T09:21:21.672Z,405.72
2023-05-15T09:26:32.651Z,405.46
2023-05-15T09:31:40.115Z,406.17
2023-05-15T09:36:47.662Z,405.61
2023-05-15T09:41:59.488Z,406.42
2023-05-15T09:47:07.527Z,406.52
2023-05-15T09:52:15.063Z,406.38
2023-05-15T09:57:26.650Z,406.06
2023-05-15T10:02:32.974Z,406.49
2023-05-15T10:07:40.453Z,406.39
2023-05-15T10:12:55.399Z,406.28
2023-05-15T10:18:19.676Z,406.81
2023-05-15T10:23:36.320Z,407.65
2023-05-15T10:28:45.344Z,407.86
2023-05-15T10:34:00.328Z,407.92
2023-05-15T10:39:05.983Z,408.25
2023-05-15T10:44:13.599Z,408.92
2023-05-15T10:49:21.283Z,409.15
2023-05-15T10:54:28.750Z,409.45
2023-05-15T10:59:36.574Z,409.85
2023-05-15T11:04:46.477Z,410.43
2023-05-15T11:09:52.137Z,410.53
2023-05-15T11:15:02.669Z,410.69
2023-05-15T11:20:07.699Z,411.21
2023-05-15T11:25:19.320Z,411.08
2023-05-15T11:30:24.775Z,411.75
2023-05-15T11:35:35.368Z,411.84
2023-05-15T11:40:46.261Z,412.77
2023-05-15T11:46:48.410Z,412.62
2023-05-15T11:51:10.179Z,413.05
2023-05-15T11:56:14.901Z,413.42
2023-05-15T12:02:17.699Z,413.96
2023-05-15T12:07:02.819Z,414.44
2023-05-15T12:12:10.792Z,414.83
2023-05-15T12:17:23.187Z,415.64
2023-05-15T12:22:30.876Z,415.48
2023-05-15T12:27:39.606Z,415.47
2023-05-15T12:32:55.381Z,415.46
2023-05-15T12:38:02.861Z,415.87
2023-05-15T12:43:15.133Z,416.24
2023-05-15T12:48:22.017Z,416.61
2023-05-15T12:53:32.865Z,417.35
2023-05-15T12:59:23.406Z,417.57
2023-05-15T13:03:46.185Z,417.33
2023-05-15T13:08:55.403Z,417.35
2023-05-15T13:14:03.026Z,416.89
2023-05-15T13:19:14.222Z,417.14
2023-05-15T13:24:25.291Z,417.03
2023-05-15T13:29:32.787Z,417.28
2023-05-15T13:34:40.157Z,417.62
2023-05-15T13:39:47.571Z,418.26
2023-05-15T13:44:56.181Z,418.42
2023-05-15T13:50:18.477Z,418.23
2023-05-15T13:55:26.382Z,418.82
2023-05-15T14:00:33.785Z,418.50
2023-05-15T14:05:50.004Z,418.58
2023-05-15T14:10:52.317Z,419.05
2023-05-15T14:16:05.055Z,418.84
2023-05-15T14:21:15.277Z,418.55
2023-05-15T14:26:38.572Z,418.63
2023-05-15T14:31:46.208Z,418.13
2023-05-15T14:37:03.055Z,418.34
2023-05-15T14:42:09.623Z,417.95
2023-05-15T14:47:18.130Z,417.57
2023-05-15T14:52:26.650Z,418.42
2023-05-15T14:57:38.138Z,418.78
2023-05-15T15:02:52.820Z,418.41
2023-05-15T15:08:06.575Z,417.83
2023-05-15T15:13:43.833Z,418.14
2023-05-15T15:18:48.396Z,418.53
2023-05-15T15:24:31.543Z,417.56
2023-05-15T15:30:06.477Z,415.94
2023-05-15T15:35:05.442Z,415.37
2023-05-15T15:40:42.349Z,414.59
2023-05-15T15:46:29.473Z,414.68
2023-05-15T15:51:38.827Z,414.11
2023-05-15T15:57:52.325Z,413.85
2023-05-15T16:03:02.059Z,413.98
2023-05-15T16:08:20.473Z,414.29
2023-05-15T16:13:41.090Z,414.27
2023-05-15T16:18:53.376Z,415.15
2023-05-15T16:24:03.664Z,415.85
2023-05-15T16:29:19.127Z,415.97
2023-05-15T16:34:33.760Z,416.05
2023-05-15T16:39:46.830Z,415.91
2023-05-15T16:45:03.453Z,416.15
2023-05-15T16:50:11.696Z,416.30
2023-05-15T16:55:58.042Z,415.93
2023-05-15T17:00:49.541Z,415.53
2023-05-15T17:05:57.465Z,415.16
2023-05-15T17:11:07.418Z,414.94
2023-05-15T17:16:18.754Z,414.05
2023-05-15T17:21:26.527Z,414.31
2023-05-15T17:26:34.329Z,414.11
2023-05-15T17:31:42.184Z,414.28
2023-05-15T17:36:50.091Z,413.82
2023-05-15T17:41:57.785Z,413.58
2023-05-15T17:47:05.614Z,413.41
2023-05-15T17:52:13.459Z,413.57
2023-05-15T17:57:21.247Z,412.75
2023-05-15T18:02:29.092Z,411.99
2023-05-15T18:07:37.026Z,411.55
2023-05-15T18:12:51.566Z,411.24
2023-05-15T18:18:02.745Z,410.93
2023-05-15T18:23:22.066Z,411.20
2023-05-15T18:28:27.351Z,410.75
2023-05-15T18:33:35.473Z,410.52
2023-05-15T18:38:44.015Z,409.90
2023-05-15T18:43:53.040Z,409.35
2023-05-15T18:49:01.366Z,408.69
2023-05-15T18:54:12.245Z,408.36
2023-05-15T18:59:18.228Z,407.91
2023-05-15T19:04:29.778Z,407.72
2023-05-15T19:09:37.590Z,407.46
2023-05-15T19:14:45.720Z,407.25
2023-05-15T19:19:53.516Z,406.74
2023-05-15T19:25:42.562Z,406.72
2023-05-15T19:30:29.833Z,406.50
2023-05-15T19:35:37.903Z,405.90
2023-05-15T19:40:45.722Z,406.32
2023-05-15T19:46:02.529Z,406.40
2023-05-15T19:51:09.834Z,405.59
2023-05-15T19:56:23.776Z,405.39
2023-05-15T20:02:06.729Z,405.43
2023-05-15T20:07:23.325Z,405.10
2023-05-15T20:12:31.208Z,405.67
2023-05-15T20:17:39.627Z,405.61
2023-05-15T20:22:50.611Z,405.92
2023-05-15T20:28:00.442Z,405.71
2023-05-15T20:33:10.239Z,405.89
2023-05-15T20:38:25.098Z,405.98
2023-05-15T20:43:54.085Z,406.47
2023-05-15T20:49:04.991Z,406.39
2023-05-15T20:54:19.104Z,407.23
2023-05-15T20:59:32.041Z,407.27
2023-05-15T21:04:41.375Z,407.00
2023-05-15T21:10:25.187Z,407.55
2023-05-15T21:15:42.989Z,407.77
2023-05-15T21:20:53.159Z,408.20
2023-05-15T21:26:00.501Z,408.12
2023-05-15T21:31:11.540Z,407.94
2023-05-15T21:36:27.154Z,407.96
2023-05-15T21:41:43.468Z,408.51
2023-05-15T21:46:54.591Z,408.15
2023-05-15T21:52:04.811Z,407.83
2023-05-15T21:57:20.098Z,408.53
2023-05-15T22:02:23.617Z,408.21
2023-05-15T22:07:32.294Z,407.85
2023-05-15T22:12:39.673Z,408.10
2023-05-15T22:17:56.449Z,408.17
2023-05-15T22:23:08.494Z,407.76
2023-05-15T22:28:17.550Z,407.89
2023-05-15T22:33:26.405Z,407.01
2023-05-15T22:38:40.407Z,407.26
2023-05-15T22:43:47.651Z,407.51
2023-05-15T22:48:59.885Z,407.32
2023-05-15T22:54:07.179Z,407.69
2023-05-15T22:59:20.931Z,407.92
2023-05-15T23:06:24.099Z,407.89
2023-05-15T23:13:33.546Z,407.76
2023-05-15T23:17:35.664Z,408.02
2023-05-15T23:23:07.447Z,407.70
2023-05-15T23:34:25.480Z,407.58
2023-05-15T23:47:02.933Z,408.12
